createdAt,value
2019-03-24T00:01:58.609Z,4.1
2019-03-24T00:07:21.445Z,4
2019-03-24T00:12:44.224Z,4.3
2019-03-24T00:18:06.900Z,4.1
2019-03-24T00:23:29.572Z,3.6
2019-03-24T00:28:52.311Z,5.1
2019-03-24T00:34:14.984Z,3.7
2019-03-24T00:39:37.658Z,4.1
2019-03-24T00:45:00.339Z,3.7
2019-03-24T00:50:22.978Z,4.6
2019-03-24T00:55:45.706Z,3.9
2019-03-24T01:01:09.513Z,4.4
2019-03-24T01:06:32.225Z,4.8
2019-03-24T01:11:54.881Z,4.4
2019-03-24T01:17:17.526Z,5
2019-03-24T01:22:40.201Z,4.7
2019-03-24T01:28:02.881Z,3.7
2019-03-24T01:33:25.544Z,4.4
2019-03-24T01:38:48.467Z,4.9
2019-03-24T01:44:11.157Z,5.4
2019-03-24T01:49:33.796Z,4.8
2019-03-24T01:54:56.541Z,4.5
2019-03-24T02:00:19.261Z,5.1
2019-03-24T02:05:41.936Z,5.1
2019-03-24T02:11:04.639Z,5.1
2019-03-24T02:16:27.416Z,5.7
2019-03-24T02:21:50.070Z,5.5
2019-03-24T02:27:12.709Z,5.1
2019-03-24T02:32:35.362Z,5.5
2019-03-24T02:37:58.038Z,5.1
2019-03-24T02:43:20.697Z,5.4
2019-03-24T02:48:43.922Z,5.5
2019-03-24T02:54:06.576Z,4.6
2019-03-24T02:59:29.239Z,5.2
2019-03-24T03:04:51.932Z,5.1
2019-03-24T03:10:16.398Z,6.3
2019-03-24T03:15:39.086Z,7.3
2019-03-24T03:21:01.701Z,8.6
2019-03-24T03:26:25.300Z,6.7
2019-03-24T03:31:47.986Z,6.3
2019-03-24T03:37:10.552Z,6.7
2019-03-24T03:42:33.228Z,8.4
2019-03-24T03:47:55.932Z,8.6
2019-03-24T03:53:18.545Z,8
2019-03-24T03:58:41.168Z,8.7
2019-03-24T04:04:03.943Z,9.4
2019-03-24T04:09:26.909Z,8.9
2019-03-24T04:14:49.638Z,10
2019-03-24T04:20:12.432Z,9.6
2019-03-24T04:25:35.063Z,9.2
2019-03-24T04:30:57.786Z,10.2
2019-03-24T04:36:20.443Z,9.7
2019-03-24T04:41:43.877Z,10.4
2019-03-24T04:47:16.274Z,10.2
2019-03-24T04:52:30.776Z,10.4
2019-03-24T04:57:53.429Z,10.3
2019-03-24T05:03:16.904Z,12.4
2019-03-24T05:08:39.582Z,12.8
2019-03-24T05:14:02.307Z,13
2019-03-24T05:19:24.963Z,12.9
2019-03-24T05:24:47.657Z,13.1
2019-03-24T05:30:10.348Z,12.7
2019-03-24T05:35:33.074Z,12.9
2019-03-24T05:40:55.785Z,13.6
2019-03-24T05:46:18.432Z,12.3
2019-03-24T05:51:41.100Z,11.5
2019-03-24T05:57:04.045Z,11.4
2019-03-24T06:02:26.928Z,11.3
2019-03-24T06:07:49.809Z,12.4
2019-03-24T06:13:12.557Z,21.4
2019-03-24T06:18:35.259Z,11
2019-03-24T06:23:57.989Z,16.799999
2019-03-24T06:29:20.853Z,11.8
2019-03-24T06:34:43.520Z,12.5
2019-03-24T06:40:06.373Z,11.9
2019-03-24T06:45:29.133Z,42.900002
2019-03-24T06:50:51.686Z,10.1
2019-03-24T06:56:14.418Z,10.1
2019-03-24T07:01:37.055Z,8.3
2019-03-24T07:06:59.803Z,7.8
2019-03-24T07:12:22.435Z,7.6
2019-03-24T07:17:45.177Z,8
2019-03-24T07:23:07.855Z,9.3
2019-03-24T07:28:30.516Z,10.4
2019-03-24T07:33:53.187Z,10
2019-03-24T07:39:15.886Z,8.7
2019-03-24T07:44:38.525Z,9.2
2019-03-24T07:50:01.234Z,8.9
2019-03-24T07:55:23.866Z,9.8
2019-03-24T08:00:46.705Z,9.3
2019-03-24T08:06:09.358Z,9.9
2019-03-24T08:11:32.215Z,9.6
2019-03-24T08:16:54.940Z,9.5
2019-03-24T08:22:17.627Z,9.7
2019-03-24T08:27:40.373Z,9
2019-03-24T08:33:03.259Z,8.9
2019-03-24T08:38:26.035Z,9.4
2019-03-24T08:43:48.805Z,9.7
2019-03-24T08:49:11.469Z,9.1
2019-03-24T08:54:34.175Z,8.6
2019-03-24T08:59:56.801Z,7.8
2019-03-24T09:05:19.537Z,7.6
2019-03-24T09:10:42.247Z,8.1
2019-03-24T09:16:04.977Z,9.4
2019-03-24T09:21:27.613Z,9.5
2019-03-24T09:26:50.332Z,8.3
2019-03-24T09:32:13.283Z,5.6
2019-03-24T09:37:36.362Z,4.7
2019-03-24T09:42:59.057Z,5.4
2019-03-24T09:48:21.774Z,6.5
2019-03-24T09:53:44.474Z,6.9
2019-03-24T09:59:07.154Z,6.1
2019-03-24T10:04:30.671Z,5.3
2019-03-24T10:09:53.853Z,5.2
2019-03-24T10:15:16.976Z,4.9
2019-03-24T10:20:40.233Z,4.9
2019-03-24T10:26:02.849Z,3.9
2019-03-24T10:31:25.517Z,4.2
2019-03-24T10:36:48.134Z,4
2019-03-24T10:42:10.792Z,4.4
2019-03-24T10:47:34.638Z,4.2
2019-03-24T10:52:57.283Z,3.7
2019-03-24T10:58:19.953Z,3.8
2019-03-24T11:03:42.654Z,3.3
2019-03-24T11:09:05.336Z,2.7
2019-03-24T11:14:28.047Z,2.8
2019-03-24T11:19:50.762Z,3.1
2019-03-24T11:25:13.397Z,3.7
2019-03-24T11:30:36.990Z,3.6
2019-03-24T11:35:59.630Z,3.9
2019-03-24T11:41:22.369Z,2.9
2019-03-24T11:46:45.167Z,2.8
2019-03-24T11:52:07.869Z,2.5
2019-03-24T11:57:31.122Z,2.5
2019-03-24T12:02:53.762Z,2.5
2019-03-24T12:08:16.898Z,2.9
2019-03-24T12:13:39.587Z,2.8
2019-03-24T12:19:02.244Z,3
2019-03-24T12:24:25.729Z,3.1
2019-03-24T12:29:48.393Z,2.8
2019-03-24T12:35:11.078Z,3
2019-03-24T12:40:33.767Z,3.4
2019-03-24T12:45:56.480Z,4.1
2019-03-24T12:51:19.126Z,3.2
2019-03-24T12:56:43.041Z,2.4
2019-03-24T13:02:05.722Z,2.4
2019-03-24T13:07:28.438Z,2.4
2019-03-24T13:12:51.174Z,3.5
2019-03-24T13:18:13.853Z,2.8
2019-03-24T13:23:36.519Z,3.4
2019-03-24T13:29:00.000Z,4
2019-03-24T13:34:22.653Z,3.3
2019-03-24T13:39:45.351Z,3.6
2019-03-24T13:45:08.066Z,3.7
2019-03-24T13:50:31.793Z,5
2019-03-24T13:55:54.489Z,4.8
2019-03-24T14:01:17.181Z,6.8
2019-03-24T14:06:39.912Z,8.6
2019-03-24T14:12:02.740Z,10.8
2019-03-24T14:17:25.444Z,10.8
2019-03-24T14:22:48.189Z,11.1
2019-03-24T14:28:10.907Z,9.9
2019-03-24T14:33:33.560Z,12.4
2019-03-24T14:38:56.339Z,7.7
2019-03-24T14:44:18.996Z,5.5
2019-03-24T14:49:41.658Z,4.1
2019-03-24T14:55:05.341Z,3.5
2019-03-24T15:00:28.024Z,2
2019-03-24T15:05:50.702Z,1.8
2019-03-24T15:11:13.509Z,2
2019-03-24T15:16:36.243Z,1.8
2019-03-24T15:21:58.906Z,2.3
2019-03-24T15:27:21.625Z,3.4
2019-03-24T15:32:44.375Z,3.6
2019-03-24T15:38:08.859Z,3.2
2019-03-24T15:43:30.828Z,3.3
2019-03-24T15:48:53.470Z,2.2
2019-03-24T15:54:16.105Z,2.4
2019-03-24T15:59:38.730Z,2
2019-03-24T16:05:01.378Z,2.8
2019-03-24T16:10:34.630Z,3
2019-03-24T16:15:46.714Z,3.2
2019-03-24T16:21:09.392Z,3
2019-03-24T16:26:33.056Z,2.7
2019-03-24T16:31:55.698Z,2.7
2019-03-24T16:37:18.450Z,2.5
2019-03-24T16:42:41.103Z,2.5
2019-03-24T16:48:03.885Z,2.3
2019-03-24T16:53:27.266Z,2.1
2019-03-24T16:58:49.918Z,2.7
2019-03-24T17:04:12.563Z,2.6
2019-03-24T17:09:35.257Z,2.2
2019-03-24T17:14:58.152Z,2.5
2019-03-24T17:20:20.790Z,2.8
2019-03-24T17:25:43.485Z,2.8
2019-03-24T17:31:06.137Z,2.8
2019-03-24T17:36:28.835Z,2.3
2019-03-24T17:41:51.465Z,2.4
2019-03-24T17:47:14.203Z,2
2019-03-24T17:52:36.869Z,2.4
2019-03-24T17:57:59.503Z,2.1
2019-03-24T18:03:22.190Z,2.1
2019-03-24T18:08:44.882Z,2.8
2019-03-24T18:14:07.531Z,2.1
2019-03-24T18:19:30.197Z,2.5
2019-03-24T18:24:52.852Z,2.1
2019-03-24T18:30:19.017Z,2.6
2019-03-24T18:35:41.658Z,2.2
2019-03-24T18:41:04.329Z,2.5
2019-03-24T18:46:29.967Z,2.8
2019-03-24T18:51:52.646Z,3
2019-03-24T18:57:16.894Z,2.1
2019-03-24T19:02:39.745Z,2.6
2019-03-24T19:08:02.574Z,2.4
2019-03-24T19:13:25.328Z,3
2019-03-24T19:18:48.250Z,2.3
2019-03-24T19:24:10.999Z,3.2
2019-03-24T19:29:33.822Z,3.5
2019-03-24T19:34:56.900Z,3.4
2019-03-24T19:40:19.880Z,3.2
2019-03-24T19:45:42.920Z,2.8
2019-03-24T19:51:07.153Z,2.7
2019-03-24T19:56:29.353Z,2.9
2019-03-24T20:01:54.163Z,3.1
2019-03-24T20:07:17.232Z,2.8
2019-03-24T20:12:39.928Z,2.9
2019-03-24T20:18:02.825Z,2.5
2019-03-24T20:23:25.571Z,2.5
2019-03-24T20:28:48.308Z,3.1
2019-03-24T20:34:14.561Z,2.7
2019-03-24T20:39:37.340Z,2.9
2019-03-24T20:45:00.064Z,3.4
2019-03-24T20:50:23.262Z,3.3
2019-03-24T20:55:46.855Z,3.4
2019-03-24T21:01:09.572Z,3.7
2019-03-24T21:06:32.277Z,3.4
2019-03-24T21:11:54.959Z,3.7
2019-03-24T21:17:17.632Z,3.4
2019-03-24T21:22:40.447Z,4
2019-03-24T21:28:03.851Z,4
2019-03-24T21:33:26.524Z,4
2019-03-24T21:38:50.845Z,3.9
2019-03-24T21:44:13.536Z,3.6
2019-03-24T21:49:36.250Z,3.9
2019-03-24T21:54:58.939Z,3.8
2019-03-24T22:00:21.934Z,3.9
2019-03-24T22:05:44.696Z,3.8
2019-03-24T22:11:07.420Z,3.6
2019-03-24T22:16:30.102Z,3.7
2019-03-24T22:21:52.764Z,3.4
2019-03-24T22:27:16.437Z,3.6
2019-03-24T22:32:39.166Z,3.8
2019-03-24T22:38:02.365Z,3.9
2019-03-24T22:43:25.006Z,4
2019-03-24T22:48:47.726Z,3.7
2019-03-24T22:54:10.408Z,3.7
2019-03-24T22:59:33.841Z,4.1
2019-03-24T23:04:56.553Z,4
2019-03-24T23:10:19.229Z,4.2
2019-03-24T23:15:41.955Z,4.1
2019-03-24T23:21:04.884Z,4.1
2019-03-24T23:26:27.561Z,4.2
2019-03-24T23:31:50.320Z,4.2
2019-03-24T23:37:12.967Z,4.4
2019-03-24T23:42:35.800Z,4.5
2019-03-24T23:47:58.877Z,3.9
2019-03-24T23:53:21.530Z,4.9
2019-03-24T23:58:44.177Z,4
